createdAt,value
2018-09-20T00:02:05.681Z,17.10
2018-09-20T00:04:34.775Z,17.10
2018-09-20T00:07:03.970Z,17.10
2018-09-20T00:09:33.044Z,17.10
2018-09-20T00:12:02.105Z,17.10
2018-09-20T00:14:31.940Z,17.10
2018-09-20T00:17:01.132Z,17.10
2018-09-20T00:19:30.323Z,17.10
2018-09-20T00:21:59.514Z,17.00
2018-09-20T00:24:28.669Z,17.00
2018-09-20T00:26:57.872Z,16.90
2018-09-20T00:29:27.229Z,16.90
2018-09-20T00:31:56.264Z,16.90
2018-09-20T00:34:25.695Z,16.80
2018-09-20T00:36:54.845Z,16.80
2018-09-20T00:39:24.138Z,16.80
2018-09-20T00:41:53.176Z,16.70
2018-09-20T00:44:22.376Z,16.70
2018-09-20T00:46:51.649Z,16.60
2018-09-20T00:49:21.327Z,16.60
2018-09-20T00:51:50.464Z,16.50
2018-09-20T00:54:19.485Z,16.60
2018-09-20T00:56:48.515Z,16.50
2018-09-20T00:59:17.741Z,16.50
2018-09-20T01:01:47.029Z,16.50
2018-09-20T01:04:16.224Z,16.50
2018-09-20T01:06:45.443Z,16.50
2018-09-20T01:09:14.608Z,16.50
2018-09-20T01:11:43.861Z,16.50
2018-09-20T01:14:12.919Z,16.50
2018-09-20T01:16:42.067Z,16.50
2018-09-20T01:19:11.501Z,16.50
2018-09-20T01:21:41.123Z,16.40
2018-09-20T01:24:10.259Z,16.40
2018-09-20T01:26:39.316Z,16.40
2018-09-20T01:29:08.609Z,16.30
2018-09-20T01:31:37.775Z,16.20
2018-09-20T01:34:06.975Z,16.20
2018-09-20T01:36:36.130Z,16.20
2018-09-20T01:39:10.522Z,16.20
2018-09-20T01:41:39.835Z,16.20
2018-09-20T01:44:09.088Z,16.20
2018-09-20T01:46:38.452Z,16.20
2018-09-20T01:49:08.464Z,16.20
2018-09-20T01:51:37.606Z,16.20
2018-09-20T01:54:06.919Z,16.20
2018-09-20T01:56:36.159Z,16.20
2018-09-20T01:59:05.342Z,16.10
2018-09-20T02:01:34.733Z,16.10
2018-09-20T02:04:03.906Z,16.10
2018-09-20T02:06:33.050Z,16.10
2018-09-20T02:09:02.522Z,16.00
2018-09-20T02:11:31.696Z,16.10
2018-09-20T02:14:00.838Z,16.10
2018-09-20T02:16:29.940Z,16.10
2018-09-20T02:18:58.984Z,16.10
2018-09-20T02:21:28.112Z,16.00
2018-09-20T02:23:57.239Z,16.00
2018-09-20T02:26:26.487Z,16.00
2018-09-20T02:28:56.238Z,16.00
2018-09-20T02:31:25.387Z,16.10
2018-09-20T02:33:54.425Z,16.10
2018-09-20T02:36:24.398Z,16.10
2018-09-20T02:38:53.537Z,16.10
2018-09-20T02:41:22.694Z,16.10
2018-09-20T02:43:51.863Z,16.20
2018-09-20T02:46:21.255Z,16.20
2018-09-20T02:48:50.458Z,16.20
2018-09-20T02:51:19.724Z,16.20
2018-09-20T02:53:49.001Z,16.20
2018-09-20T02:56:18.124Z,16.20
2018-09-20T02:58:47.409Z,16.20
2018-09-20T03:01:16.950Z,16.20
2018-09-20T03:03:46.947Z,16.20
2018-09-20T03:06:16.348Z,16.20
2018-09-20T03:08:45.509Z,16.10
2018-09-20T03:11:14.748Z,16.10
2018-09-20T03:13:44.047Z,16.10
2018-09-20T03:16:13.251Z,16.10
2018-09-20T03:18:43.198Z,16.10
2018-09-20T03:21:12.463Z,16.10
2018-09-20T03:23:41.594Z,16.20
2018-09-20T03:26:11.644Z,16.20
2018-09-20T03:28:40.710Z,16.30
2018-09-20T03:31:09.802Z,16.30
2018-09-20T03:33:39.073Z,16.40
2018-09-20T03:36:08.247Z,16.40
2018-09-20T03:38:37.697Z,16.40
2018-09-20T03:41:06.768Z,16.50
2018-09-20T03:43:36.230Z,16.50
2018-09-20T03:46:05.491Z,16.60
2018-09-20T03:48:34.678Z,16.70
2018-09-20T03:51:03.786Z,16.70
2018-09-20T03:53:33.163Z,16.70
2018-09-20T03:56:02.426Z,16.60
2018-09-20T03:58:31.628Z,16.50
2018-09-20T04:01:00.885Z,16.50
2018-09-20T04:03:30.015Z,16.40
2018-09-20T04:05:59.281Z,16.30
2018-09-20T04:08:28.692Z,16.20
2018-09-20T04:10:57.846Z,16.10
2018-09-20T04:13:27.121Z,16.00
2018-09-20T04:15:56.361Z,16.00
2018-09-20T04:18:25.785Z,15.90
2018-09-20T04:20:55.161Z,15.90
2018-09-20T04:23:25.025Z,15.80
2018-09-20T04:25:54.081Z,15.70
2018-09-20T04:28:23.309Z,15.70
2018-09-20T04:30:52.497Z,15.70
2018-09-20T04:33:21.897Z,15.60
2018-09-20T04:35:50.963Z,15.60
2018-09-20T04:38:20.126Z,15.50
2018-09-20T04:40:49.407Z,15.50
2018-09-20T04:43:18.593Z,15.40
2018-09-20T04:45:47.808Z,15.40
2018-09-20T04:48:17.011Z,15.40
2018-09-20T04:50:46.336Z,15.30
2018-09-20T04:53:15.701Z,15.30
2018-09-20T04:55:45.088Z,15.30
2018-09-20T04:58:14.381Z,15.40
2018-09-20T05:00:43.498Z,15.40
2018-09-20T05:03:12.794Z,15.30
2018-09-20T05:05:42.009Z,15.40
2018-09-20T05:08:11.125Z,15.30
2018-09-20T05:10:40.438Z,15.30
2018-09-20T05:13:09.923Z,15.30
2018-09-20T05:15:40.158Z,15.20
2018-09-20T05:18:09.388Z,15.20
2018-09-20T05:20:38.535Z,15.20
2018-09-20T05:23:07.887Z,15.20
2018-09-20T05:25:37.008Z,15.10
2018-09-20T05:28:09.828Z,15.10
2018-09-20T05:30:39.015Z,15.10
2018-09-20T05:33:08.099Z,15.20
2018-09-20T05:36:11.001Z,15.20
2018-09-20T05:38:40.589Z,15.30
2018-09-20T05:41:09.746Z,15.30
2018-09-20T05:43:39.059Z,15.40
2018-09-20T05:46:08.253Z,15.40
2018-09-20T05:48:37.469Z,15.50
2018-09-20T05:51:07.332Z,15.60
2018-09-20T05:53:36.550Z,15.70
2018-09-20T05:56:05.885Z,15.70
2018-09-20T05:58:35.309Z,15.80
2018-09-20T06:01:04.693Z,15.90
2018-09-20T06:03:33.782Z,16.00
2018-09-20T06:06:03.055Z,16.10
2018-09-20T06:08:32.249Z,16.20
2018-09-20T06:11:01.365Z,16.30
2018-09-20T06:13:30.716Z,16.30
2018-09-20T06:15:59.781Z,16.40
2018-09-20T06:18:28.815Z,16.40
2018-09-20T06:20:57.967Z,16.50
2018-09-20T06:23:27.234Z,16.50
2018-09-20T06:25:56.556Z,16.60
2018-09-20T06:28:25.742Z,16.70
2018-09-20T06:30:54.875Z,16.80
2018-09-20T06:33:24.276Z,16.80
2018-09-20T06:35:53.913Z,16.90
2018-09-20T06:38:23.143Z,17.00
2018-09-20T06:40:53.289Z,17.00
2018-09-20T06:43:22.361Z,17.10
2018-09-20T06:45:51.669Z,17.10
2018-09-20T06:48:20.775Z,17.20
2018-09-20T06:50:49.937Z,17.20
2018-09-20T06:53:19.800Z,17.30
2018-09-20T06:55:49.086Z,17.40
2018-09-20T06:58:18.247Z,17.50
2018-09-20T07:00:47.594Z,17.60
2018-09-20T07:03:17.392Z,17.60
2018-09-20T07:05:47.491Z,17.70
2018-09-20T07:08:16.553Z,17.80
2018-09-20T07:10:45.678Z,17.80
2018-09-20T07:13:14.988Z,17.90
2018-09-20T07:15:45.135Z,18.00
2018-09-20T07:18:15.077Z,18.10
2018-09-20T07:20:44.339Z,18.10
2018-09-20T07:23:14.087Z,18.20
2018-09-20T07:25:43.243Z,18.30
2018-09-20T07:28:12.229Z,18.30
2018-09-20T07:30:41.467Z,18.40
2018-09-20T07:33:10.694Z,18.50
2018-09-20T07:35:39.941Z,18.60
2018-09-20T07:38:09.002Z,18.70
2018-09-20T07:40:38.255Z,18.80
2018-09-20T07:43:07.349Z,19.00
2018-09-20T07:45:36.397Z,19.00
2018-09-20T07:48:05.720Z,19.10
2018-09-20T07:50:34.902Z,19.30
2018-09-20T07:53:04.243Z,19.50
2018-09-20T07:55:33.337Z,19.60
2018-09-20T07:58:02.631Z,19.70
2018-09-20T08:00:31.738Z,19.80
2018-09-20T08:03:00.880Z,19.90
2018-09-20T08:05:29.926Z,19.90
2018-09-20T08:07:59.635Z,20.00
2018-09-20T08:10:29.070Z,20.00
2018-09-20T08:12:58.197Z,19.90
2018-09-20T08:15:27.436Z,20.00
2018-09-20T08:17:56.742Z,20.20
2018-09-20T08:20:26.125Z,20.50
2018-09-20T08:22:55.180Z,20.60
2018-09-20T08:25:24.501Z,20.70
2018-09-20T08:27:53.698Z,20.80
2018-09-20T08:30:22.816Z,20.80
2018-09-20T08:32:51.935Z,20.80
2018-09-20T08:35:21.090Z,20.70
2018-09-20T08:37:50.634Z,20.70
2018-09-20T08:40:19.773Z,20.60
2018-09-20T08:42:49.005Z,20.70
2018-09-20T08:45:18.263Z,20.70
2018-09-20T08:47:47.564Z,20.80
2018-09-20T08:50:16.626Z,21.00
2018-09-20T08:52:46.631Z,21.10
2018-09-20T08:55:15.831Z,21.30
2018-09-20T08:57:50.478Z,21.40
2018-09-20T09:00:19.962Z,21.60
2018-09-20T09:02:49.262Z,21.70
2018-09-20T09:05:18.448Z,21.70
2018-09-20T09:07:47.646Z,21.80
2018-09-20T09:10:16.931Z,21.70
2018-09-20T09:12:46.083Z,21.60
2018-09-20T09:15:15.250Z,21.50
2018-09-20T09:17:44.317Z,21.40
2018-09-20T09:20:13.426Z,21.20
2018-09-20T09:22:42.474Z,21.10
2018-09-20T09:25:11.799Z,21.30
2018-09-20T09:27:41.910Z,21.50
2018-09-20T09:30:11.129Z,21.80
2018-09-20T09:32:40.336Z,21.90
2018-09-20T09:35:09.579Z,22.00
2018-09-20T09:37:38.788Z,22.00
2018-09-20T09:40:08.229Z,21.90
2018-09-20T09:42:37.572Z,22.00
2018-09-20T09:45:06.927Z,22.10
2018-09-20T09:47:36.364Z,22.20
2018-09-20T09:50:06.498Z,22.30
2018-09-20T09:52:35.727Z,22.30
2018-09-20T09:55:05.228Z,22.20
2018-09-20T09:57:34.399Z,22.30
2018-09-20T10:00:07.178Z,22.50
2018-09-20T10:02:36.345Z,22.70
2018-09-20T10:05:06.171Z,22.80
2018-09-20T10:07:35.303Z,23.00
2018-09-20T10:10:04.892Z,23.30
2018-09-20T10:12:34.057Z,23.50
2018-09-20T10:15:03.376Z,23.50
2018-09-20T10:17:32.737Z,23.60
2018-09-20T10:20:02.063Z,23.40
2018-09-20T10:22:31.599Z,23.40
2018-09-20T10:25:00.900Z,23.30
2018-09-20T10:27:30.055Z,23.30
2018-09-20T10:29:59.253Z,23.20
2018-09-20T10:32:28.466Z,23.10
2018-09-20T10:34:57.660Z,22.90
2018-09-20T10:37:27.025Z,22.80
2018-09-20T10:39:56.176Z,22.70
2018-09-20T10:42:25.286Z,22.70
2018-09-20T10:45:09.422Z,22.90
2018-09-20T10:47:38.516Z,23.00
2018-09-20T10:50:07.657Z,23.20
2018-09-20T10:52:36.817Z,23.50
2018-09-20T10:55:05.886Z,23.70
2018-09-20T10:57:35.008Z,24.10
2018-09-20T11:00:04.533Z,24.50
2018-09-20T11:02:34.299Z,24.90
2018-09-20T11:05:03.359Z,25.10
2018-09-20T11:07:32.548Z,25.10
2018-09-20T11:10:01.723Z,25.20
2018-09-20T11:12:31.660Z,25.10
2018-09-20T11:15:00.962Z,24.80
2018-09-20T11:17:30.175Z,24.40
2018-09-20T11:19:59.327Z,24.20
2018-09-20T11:22:28.479Z,24.10
2018-09-20T11:24:57.837Z,24.00
2018-09-20T11:27:26.985Z,23.90
2018-09-20T11:29:56.173Z,23.80
2018-09-20T11:32:25.374Z,23.80
2018-09-20T11:34:54.661Z,23.80
2018-09-20T11:37:23.867Z,23.80
2018-09-20T11:39:53.008Z,23.70
2018-09-20T11:42:22.051Z,23.70
2018-09-20T11:44:51.231Z,23.60
2018-09-20T11:47:20.505Z,23.70
2018-09-20T11:49:49.555Z,23.70
2018-09-20T11:52:19.211Z,23.80
2018-09-20T11:54:48.386Z,23.80
2018-09-20T11:57:18.217Z,23.80
2018-09-20T11:59:47.292Z,23.80
2018-09-20T12:02:16.653Z,23.80
2018-09-20T12:04:45.717Z,23.90
2018-09-20T12:07:14.764Z,23.90
2018-09-20T12:09:43.804Z,24.10
2018-09-20T12:12:12.988Z,24.20
2018-09-20T12:14:42.230Z,24.20
2018-09-20T12:17:11.387Z,24.30
2018-09-20T12:19:40.428Z,24.30
2018-09-20T12:22:09.685Z,24.30
2018-09-20T12:24:39.075Z,24.40
2018-09-20T12:27:08.181Z,24.40
2018-09-20T12:29:37.845Z,24.40
2018-09-20T12:32:07.057Z,24.40
2018-09-20T12:34:36.342Z,24.40
2018-09-20T12:37:05.439Z,24.50
2018-09-20T12:39:34.703Z,24.60
2018-09-20T12:42:03.971Z,24.70
2018-09-20T12:44:33.164Z,24.80
2018-09-20T12:47:02.446Z,24.90
2018-09-20T12:49:31.685Z,25.00
2018-09-20T12:52:00.907Z,24.90
2018-09-20T12:54:30.179Z,24.80
2018-09-20T12:57:00.073Z,24.70
2018-09-20T12:59:29.248Z,24.70
2018-09-20T13:01:58.436Z,24.70
2018-09-20T13:04:27.734Z,24.60
2018-09-20T13:06:56.830Z,24.60
2018-09-20T13:09:25.939Z,24.60
2018-09-20T13:11:55.118Z,24.70
2018-09-20T13:14:24.253Z,24.70
2018-09-20T13:16:53.450Z,24.90
2018-09-20T13:19:22.665Z,24.90
2018-09-20T13:21:51.892Z,25.00
2018-09-20T13:24:21.162Z,25.10
2018-09-20T13:26:50.468Z,25.20
2018-09-20T13:29:19.824Z,25.40
2018-09-20T13:31:49.080Z,25.40
2018-09-20T13:34:18.281Z,25.40
2018-09-20T13:36:48.000Z,25.40
2018-09-20T13:39:17.204Z,25.50
2018-09-20T13:41:46.429Z,25.40
2018-09-20T13:44:15.670Z,25.40
2018-09-20T13:46:45.096Z,25.50
2018-09-20T13:49:14.294Z,25.40
2018-09-20T13:51:44.040Z,25.40
2018-09-20T13:54:13.157Z,25.40
2018-09-20T13:56:42.399Z,25.40
2018-09-20T13:59:11.536Z,25.50
2018-09-20T14:01:40.894Z,25.40
2018-09-20T14:04:10.083Z,25.60
2018-09-20T14:06:39.174Z,25.90
2018-09-20T14:09:10.031Z,26.20
2018-09-20T14:11:39.745Z,26.40
2018-09-20T14:14:09.047Z,26.50
2018-09-20T14:16:38.463Z,26.50
2018-09-20T14:19:07.856Z,26.40
2018-09-20T14:21:37.560Z,26.40
2018-09-20T14:24:07.628Z,26.30
2018-09-20T14:26:36.816Z,26.10
2018-09-20T14:29:06.386Z,26.00
2018-09-20T14:31:35.683Z,26.00
2018-09-20T14:34:04.954Z,26.00
2018-09-20T14:36:34.303Z,26.00
2018-09-20T14:39:04.407Z,25.90
2018-09-20T14:41:33.582Z,25.90
2018-09-20T14:44:02.697Z,26.00
2018-09-20T14:46:31.972Z,26.00
2018-09-20T14:49:01.209Z,26.10
2018-09-20T14:51:30.394Z,26.10
2018-09-20T14:53:59.676Z,26.00
2018-09-20T14:56:28.795Z,26.00
2018-09-20T14:58:58.043Z,25.90
2018-09-20T15:01:27.191Z,25.80
2018-09-20T15:03:56.322Z,25.70
2018-09-20T15:06:25.472Z,25.60
2018-09-20T15:08:55.014Z,25.50
2018-09-20T15:11:24.051Z,25.40
2018-09-20T15:13:53.193Z,25.30
2018-09-20T15:16:22.350Z,25.20
2018-09-20T15:18:51.523Z,25.20
2018-09-20T15:21:21.337Z,25.20
2018-09-20T15:23:50.697Z,25.30
2018-09-20T15:26:20.227Z,25.30
2018-09-20T15:28:49.486Z,25.40
2018-09-20T15:31:18.663Z,25.40
2018-09-20T15:33:48.098Z,25.40
2018-09-20T15:36:18.111Z,25.30
2018-09-20T15:38:47.208Z,25.30
2018-09-20T15:41:16.451Z,25.20
2018-09-20T15:43:45.819Z,25.30
2018-09-20T15:46:15.179Z,25.20
2018-09-20T15:48:44.352Z,25.30
2018-09-20T15:51:13.528Z,25.30
2018-09-20T15:53:42.738Z,25.40
2018-09-20T15:56:12.452Z,25.60
2018-09-20T15:58:41.818Z,25.80
2018-09-20T16:01:11.999Z,25.80
2018-09-20T16:03:41.289Z,25.90
2018-09-20T16:06:10.713Z,26.20
2018-09-20T16:08:41.003Z,26.40
2018-09-20T16:11:10.186Z,26.40
2018-09-20T16:13:39.353Z,26.50
2018-09-20T16:16:09.245Z,26.50
2018-09-20T16:18:38.443Z,26.50
2018-09-20T16:21:08.071Z,26.30
2018-09-20T16:23:39.248Z,26.20
2018-09-20T16:26:08.487Z,26.00
2018-09-20T16:28:53.151Z,25.80
2018-09-20T16:32:04.021Z,25.60
2018-09-20T16:34:46.130Z,25.40
2018-09-20T16:37:41.016Z,25.20
2018-09-20T16:40:12.603Z,25.10
2018-09-20T16:42:44.400Z,25.00
2018-09-20T16:45:13.433Z,24.90
2018-09-20T16:47:42.939Z,24.80
2018-09-20T16:50:12.054Z,24.70
2018-09-20T16:52:41.621Z,24.60
2018-09-20T16:55:10.696Z,24.50
2018-09-20T16:57:40.576Z,24.40
2018-09-20T17:00:11.844Z,24.30
2018-09-20T17:02:41.607Z,24.10
2018-09-20T17:05:11.324Z,24.10
2018-09-20T17:07:41.083Z,24.00
2018-09-20T17:10:10.245Z,23.90
2018-09-20T17:12:39.445Z,23.80
2018-09-20T17:15:08.776Z,23.70
2018-09-20T17:17:37.968Z,23.70
2018-09-20T17:20:07.187Z,23.60
2018-09-20T17:22:36.881Z,23.50
2018-09-20T17:25:06.138Z,23.40
2018-09-20T17:27:35.386Z,23.30
2018-09-20T17:30:04.701Z,23.20
2018-09-20T17:32:33.795Z,23.10
2018-09-20T17:35:03.026Z,23.00
2018-09-20T17:37:33.579Z,23.00
2018-09-20T17:40:03.331Z,22.90
2018-09-20T17:42:33.843Z,22.80
2018-09-20T17:45:03.070Z,22.80
2018-09-20T17:47:32.275Z,22.70
2018-09-20T17:50:01.439Z,22.60
2018-09-20T17:52:30.928Z,22.50
2018-09-20T17:55:00.764Z,22.50
2018-09-20T17:57:30.728Z,22.40
2018-09-20T17:59:59.922Z,22.40
2018-09-20T18:02:29.054Z,22.40
2018-09-20T18:04:58.161Z,22.30
2018-09-20T18:07:27.225Z,22.30
2018-09-20T18:09:56.395Z,22.20
2018-09-20T18:12:25.538Z,22.10
2018-09-20T18:14:54.689Z,22.10
2018-09-20T18:17:23.827Z,22.00
2018-09-20T18:19:53.197Z,22.00
2018-09-20T18:22:24.685Z,21.90
2018-09-20T18:24:55.277Z,21.90
2018-09-20T18:27:24.503Z,21.80
2018-09-20T18:29:53.552Z,21.70
2018-09-20T18:32:23.941Z,21.70
2018-09-20T18:34:53.063Z,21.60
2018-09-20T18:37:22.232Z,21.50
2018-09-20T18:39:51.546Z,21.40
2018-09-20T18:42:20.848Z,21.40
2018-09-20T18:44:49.936Z,21.30
2018-09-20T18:47:19.046Z,21.20
2018-09-20T18:49:48.351Z,21.20
2018-09-20T18:52:18.537Z,21.10
2018-09-20T18:54:48.550Z,21.10
2018-09-20T18:57:17.805Z,21.10
2018-09-20T18:59:46.936Z,21.00
2018-09-20T19:02:15.984Z,21.00
2018-09-20T19:04:45.290Z,20.90
2018-09-20T19:07:14.488Z,20.90
2018-09-20T19:09:43.758Z,20.80
2018-09-20T19:12:12.957Z,20.80
2018-09-20T19:14:42.124Z,20.80
2018-09-20T19:17:11.585Z,20.70
2018-09-20T19:19:40.858Z,20.70
2018-09-20T19:22:10.121Z,20.70
2018-09-20T19:24:39.274Z,20.60
2018-09-20T19:27:08.639Z,20.60
2018-09-20T19:29:37.862Z,20.50
2018-09-20T19:32:07.675Z,20.50
2018-09-20T19:34:37.431Z,20.50
2018-09-20T19:37:06.629Z,20.50
2018-09-20T19:39:35.788Z,20.50
2018-09-20T19:42:05.084Z,20.50
2018-09-20T19:44:34.270Z,20.50
2018-09-20T19:47:03.333Z,20.50
2018-09-20T19:49:32.716Z,20.50
2018-09-20T19:52:01.933Z,20.50
2018-09-20T19:54:31.206Z,20.50
2018-09-20T19:57:01.472Z,20.50
2018-09-20T19:59:30.851Z,20.40
2018-09-20T20:02:00.022Z,20.40
2018-09-20T20:04:29.144Z,20.50
2018-09-20T20:06:58.249Z,20.40
2018-09-20T20:09:27.477Z,20.40
2018-09-20T20:11:57.523Z,20.40
2018-09-20T20:14:26.654Z,20.40
2018-09-20T20:16:55.974Z,20.40
2018-09-20T20:19:25.101Z,20.40
2018-09-20T20:21:54.427Z,20.30
2018-09-20T20:24:23.625Z,20.30
2018-09-20T20:26:52.820Z,20.20
2018-09-20T20:29:21.960Z,20.20
2018-09-20T20:31:51.241Z,20.10
2018-09-20T20:34:20.544Z,20.10
2018-09-20T20:36:50.667Z,20.00
2018-09-20T20:39:19.987Z,20.00
2018-09-20T20:41:49.281Z,19.90
2018-09-20T20:44:18.613Z,19.90
2018-09-20T20:46:47.794Z,19.90
2018-09-20T20:49:17.538Z,19.90
2018-09-20T20:51:47.132Z,19.90
2018-09-20T20:54:16.852Z,19.90
2018-09-20T20:56:46.138Z,19.90
2018-09-20T20:59:15.229Z,19.90
2018-09-20T21:01:44.428Z,20.00
2018-09-20T21:04:13.727Z,20.00
2018-09-20T21:06:43.006Z,20.10
2018-09-20T21:09:12.333Z,20.20
2018-09-20T21:11:41.500Z,20.20
2018-09-20T21:14:10.757Z,20.20
2018-09-20T21:16:39.903Z,20.20
2018-09-20T21:19:09.208Z,20.20
2018-09-20T21:21:38.324Z,20.20
2018-09-20T21:24:07.435Z,20.20
2018-09-20T21:26:36.573Z,20.20
2018-09-20T21:29:06.106Z,20.20
2018-09-20T21:31:35.342Z,20.10
2018-09-20T21:34:05.214Z,20.10
2018-09-20T21:36:34.551Z,20.10
2018-09-20T21:39:04.439Z,20.00
2018-09-20T21:41:33.636Z,20.00
2018-09-20T21:44:03.155Z,20.00
2018-09-20T21:46:32.646Z,20.00
2018-09-20T21:49:01.769Z,20.00
2018-09-20T21:51:31.004Z,20.00
2018-09-20T21:54:00.049Z,19.90
2018-09-20T21:56:29.228Z,19.90
2018-09-20T21:58:58.670Z,19.80
2018-09-20T22:01:32.117Z,19.80
2018-09-20T22:04:04.324Z,19.70
2018-09-20T22:06:34.547Z,19.70
2018-09-20T22:09:04.968Z,19.70
2018-09-20T22:11:34.515Z,19.70
2018-09-20T22:14:03.782Z,19.70
2018-09-20T22:16:33.079Z,19.80
2018-09-20T22:19:02.348Z,19.80
2018-09-20T22:21:31.441Z,19.70
2018-09-20T22:24:01.428Z,19.70
2018-09-20T22:26:30.656Z,19.70
2018-09-20T22:28:59.997Z,19.70
2018-09-20T22:31:29.156Z,19.70
2018-09-20T22:33:58.567Z,19.70
2018-09-20T22:36:27.737Z,19.70
2018-09-20T22:38:57.080Z,19.60
2018-09-20T22:41:26.119Z,19.70
2018-09-20T22:43:55.220Z,19.70
2018-09-20T22:46:24.310Z,19.70
2018-09-20T22:48:53.344Z,19.70
2018-09-20T22:51:22.555Z,19.70
2018-09-20T22:53:51.704Z,19.70
2018-09-20T22:56:20.946Z,19.70
2018-09-20T22:58:50.745Z,19.70
2018-09-20T23:01:20.097Z,19.80
2018-09-20T23:03:49.355Z,19.70
2018-09-20T23:06:18.521Z,19.80
2018-09-20T23:08:48.291Z,19.80
2018-09-20T23:11:17.636Z,19.80
2018-09-20T23:13:47.101Z,19.80
2018-09-20T23:16:16.561Z,19.70
2018-09-20T23:18:45.833Z,19.70
2018-09-20T23:21:15.026Z,19.70
2018-09-20T23:23:44.269Z,19.70
2018-09-20T23:26:13.611Z,19.60
2018-09-20T23:28:42.772Z,19.60
2018-09-20T23:31:12.280Z,19.60
2018-09-20T23:33:41.436Z,19.60
2018-09-20T23:36:10.458Z,19.60
2018-09-20T23:38:39.630Z,19.50
2018-09-20T23:41:08.978Z,19.50
2018-09-20T23:43:38.263Z,19.50
2018-09-20T23:46:07.456Z,19.50
2018-09-20T23:48:36.515Z,19.50
2018-09-20T23:51:05.900Z,19.50
2018-09-20T23:53:35.055Z,19.50
2018-09-20T23:56:04.408Z,19.50
2018-09-20T23:58:33.557Z,19.50
